Terminal Aerodrome Forecast
Issued by NWS

Home | Current Version | Previous Version | Graphics & Text | Print | Product List | Glossary On
Versions: 1 2 3 4 5 6 7 8 9 10 11 12 13 14 15 16 17 18 19 20 21 22 23 24 25 26
000
FTUS43 KICT 231549 AAA
TAFCNU
TAF AMD
KCNU 231549Z 2316/2412 15010KT P6SM -SHRA SCT006 OVC020
      TEMPO 2316/2320 3SM -RA BR OVC006
     FM232000 15011KT 5SM -SHRA VCTS SCT015 OVC025CB=

USA.gov is the U.S. government's official web portal to all federal, state and local government web resources and services.